createdAt,value
2022-10-30T00:10:58.524Z,98623.09
2022-10-30T00:31:01.239Z,98658.09
2022-10-30T00:51:03.862Z,98650.25
2022-10-30T01:11:06.475Z,98638.09
2022-10-30T01:31:09.156Z,98619.56
2022-10-30T01:51:11.635Z,98621.44
2022-10-30T02:11:14.277Z,98630.16
2022-10-30T02:31:16.990Z,98620.22
2022-10-30T02:51:19.566Z,98615.78
2022-10-30T03:11:22.044Z,98597.94
2022-10-30T03:31:24.675Z,98621.25
2022-10-30T03:51:27.430Z,98616.81
2022-10-30T04:11:29.986Z,98618.28
2022-10-30T04:31:32.786Z,98604.53
2022-10-30T04:51:35.405Z,98623.72
2022-10-30T05:11:38.042Z,98621.94
2022-10-30T05:31:40.699Z,98613.25
2022-10-30T05:51:43.313Z,98615.44
2022-10-30T06:11:45.939Z,98620.81
2022-10-30T06:31:48.492Z,98625.38
2022-10-30T06:51:50.971Z,98627.78
2022-10-30T07:11:56.622Z,98632.88
2022-10-30T07:32:03.131Z,98633.66
2022-10-30T07:52:06.184Z,98641.41
2022-10-30T08:12:08.816Z,98633.00
2022-10-30T08:32:11.460Z,98621.72
2022-10-30T08:52:14.151Z,98618.56
2022-10-30T09:12:17.400Z,98593.59
2022-10-30T09:32:19.922Z,98600.25
2022-10-30T09:52:22.474Z,98598.94
2022-10-30T10:12:25.243Z,98591.56
2022-10-30T10:32:27.788Z,98577.47
2022-10-30T10:52:30.421Z,98563.47
2022-10-30T11:12:35.462Z,98542.06
2022-10-30T11:32:39.555Z,98528.81
2022-10-30T11:52:42.121Z,98543.59
2022-10-30T12:12:44.836Z,98535.84
2022-10-30T12:32:47.497Z,98524.09
2022-10-30T12:52:50.201Z,98506.06
2022-10-30T13:12:55.869Z,98495.72
2022-10-30T13:32:58.849Z,98485.88
2022-10-30T13:53:01.919Z,98492.41
2022-10-30T14:13:04.784Z,98461.53
2022-10-30T14:33:07.503Z,98453.63
2022-10-30T14:53:10.108Z,98463.22
2022-10-30T15:13:12.827Z,98458.22
2022-10-30T15:33:15.499Z,98449.69
2022-10-30T15:53:18.018Z,98464.72
2022-10-30T16:13:20.713Z,98464.50
2022-10-30T16:33:23.419Z,98471.56
2022-10-30T16:53:26.051Z,98476.19
2022-10-30T17:13:28.671Z,98469.78
2022-10-30T17:33:31.302Z,98466.41
2022-10-30T17:53:33.862Z,98474.59
2022-10-30T18:13:36.544Z,98472.03
2022-10-30T18:33:39.221Z,98473.06
2022-10-30T18:53:41.958Z,98463.22
2022-10-30T19:13:44.693Z,98483.28
2022-10-30T19:33:51.289Z,98490.31
2022-10-30T19:53:57.325Z,98486.94
2022-10-30T20:13:59.897Z,98501.25
2022-10-30T20:34:03.537Z,98504.66
2022-10-30T20:54:06.431Z,98502.62
2022-10-30T21:14:08.960Z,98493.19
2022-10-30T21:34:11.890Z,98497.16
2022-10-30T21:54:14.627Z,98502.31
2022-10-30T22:14:17.270Z,98495.66
2022-10-30T22:34:19.996Z,98494.91
2022-10-30T22:54:22.660Z,98483.94
2022-10-30T23:14:25.356Z,98484.41
2022-10-30T23:34:27.978Z,98502.47
2022-10-30T23:54:30.440Z,98505.38
